Time;durP1;ratioP1;P1;durP2;ratioP2;P2;SDS_P1;SDS_P2;PMS_P1;PMS_P2;Temp;Humidity;BMP_temperature;BMP_pressure;BME280_temperature;BME280_humidity;BME280_pressure;Samples;Min_cycle;Max_cycle;Signal;HPM_P1;HPM_P2
2021/09/10 00:01:08;;;;;;;1.38;1.27;;;19.90;99.90;;;;;;4950588;29;20062;-79
2021/09/10 00:03:34;;;;;;;1.40;1.30;;;19.90;99.90;;;;;;4952173;28;20027;-79
2021/09/10 00:06:00;;;;;;;1.95;1.85;;;19.90;99.90;;;;;;4951659;28;20088;-79
2021/09/10 00:08:25;;;;;;;2.55;2.35;;;19.80;99.90;;;;;;4952115;28;20032;-79
2021/09/10 00:10:52;;;;;;;1.65;1.55;;;19.80;99.90;;;;;;4950324;29;20526;-77
2021/09/10 00:13:18;;;;;;;1.30;1.20;;;19.80;99.90;;;;;;4950577;29;20419;-77
2021/09/10 00:15:44;;;;;;;1.48;1.38;;;19.80;99.90;;;;;;4951950;28;20509;-79
2021/09/10 00:18:10;;;;;;;1.90;1.80;;;19.70;99.90;;;;;;4950424;29;20027;-79
2021/09/10 00:20:36;;;;;;;1.33;1.23;;;19.70;99.90;;;;;;4951961;28;20034;-80
2021/09/10 00:23:01;;;;;;;1.83;1.65;;;19.70;99.90;;;;;;4951850;28;20039;-79
2021/09/10 00:25:27;;;;;;;1.63;1.52;;;19.70;99.90;;;;;;4950403;29;20039;-79
2021/09/10 00:27:53;;;;;;;1.58;1.48;;;19.60;99.90;;;;;;4966494;28;20111;-80
2021/09/10 00:30:18;;;;;;;1.35;1.25;;;19.60;99.90;;;;;;4951546;28;20031;-79
2021/09/10 00:32:44;;;;;;;1.30;1.20;;;19.60;99.90;;;;;;4951815;28;20057;-78
2021/09/10 00:35:11;;;;;;;2.13;1.90;;;19.50;99.90;;;;;;4951713;28;20042;-80
2021/09/10 00:37:37;;;;;;;1.40;1.30;;;19.50;99.90;;;;;;4949752;29;20055;-79
2021/09/10 00:40:05;;;;;;;2.15;1.95;;;19.50;99.90;;;;;;4950552;29;20054;-78
2021/09/10 00:42:30;;;;;;;1.58;1.48;;;19.40;99.90;;;;;;4951915;28;20459;-79
2021/09/10 00:44:57;;;;;;;5.82;1.83;;;19.50;99.90;;;;;;4949974;29;20511;-78
2021/09/10 00:47:23;;;;;;;1.50;1.40;;;19.30;99.90;;;;;;4951689;29;20042;-79
2021/09/10 00:49:50;;;;;;;1.70;1.60;;;19.30;99.90;;;;;;4951749;29;20031;-79
2021/09/10 00:52:17;;;;;;;1.55;1.45;;;19.20;99.90;;;;;;4950270;29;20089;-80
2021/09/10 00:54:43;;;;;;;1.75;1.65;;;19.20;99.90;;;;;;4951552;29;20041;-78
2021/09/10 00:57:09;;;;;;;2.72;2.25;;;19.20;99.90;;;;;;4950150;29;20398;-77
2021/09/10 00:59:35;;;;;;;1.48;1.38;;;19.20;99.90;;;;;;4951696;29;20023;-78
2021/09/10 01:02:01;;;;;;;1.42;1.33;;;19.00;99.90;;;;;;4951873;28;20042;-78
2021/09/10 01:04:28;;;;;;;1.77;1.67;;;18.90;99.90;;;;;;4969741;28;20093;-78
2021/09/10 01:06:55;;;;;;;1.40;1.30;;;18.90;99.90;;;;;;4954462;28;20027;-78
2021/09/10 01:09:22;;;;;;;1.60;1.50;;;18.90;99.90;;;;;;4954800;28;20027;-78
2021/09/10 01:11:50;;;;;;;2.25;2.05;;;18.90;99.90;;;;;;4954792;28;20472;-78
2021/09/10 01:14:17;;;;;;;1.50;1.40;;;18.80;99.90;;;;;;4969862;28;20034;-77
2021/09/10 01:16:47;;;;;;;1.55;1.45;;;18.80;99.90;;;;;;4954434;28;20431;-77
2021/09/10 01:19:32;;;;;;;2.30;2.10;;;18.80;99.90;;;;;;4954665;28;20031;-78
2021/09/10 01:22:00;;;;;;;1.50;1.40;;;18.70;99.90;;;;;;4954305;28;20043;-80
2021/09/10 01:24:39;;;;;;;1.50;1.40;;;18.60;99.90;;;;;;4954368;28;20031;-79
2021/09/10 01:27:07;;;;;;;2.00;1.80;;;18.60;99.90;;;;;;4954054;28;20027;-79
2021/09/10 01:29:34;;;;;;;1.40;1.30;;;18.70;99.90;;;;;;4954572;28;20031;-82
2021/09/10 01:32:01;;;;;;;3.72;2.70;;;18.70;99.90;;;;;;4954602;28;20090;-80
2021/09/10 01:34:27;;;;;;;1.58;1.48;;;18.50;99.90;;;;;;4952875;29;20435;-82
2021/09/10 01:36:52;;;;;;;4.00;2.40;;;18.60;99.90;;;;;;4954039;28;20472;-77
2021/09/10 01:39:18;;;;;;;1.75;1.65;;;18.50;99.90;;;;;;4953984;28;20172;-76
2021/09/10 01:41:44;;;;;;;1.45;1.35;;;18.50;99.90;;;;;;4953918;28;20458;-79
2021/09/10 01:44:10;;;;;;;1.50;1.40;;;18.40;99.90;;;;;;4954137;28;20471;-78
2021/09/10 01:46:35;;;;;;;1.40;1.30;;;18.40;99.90;;;;;;4952633;29;20027;-78
2021/09/10 01:49:01;;;;;;;1.70;1.60;;;18.40;99.90;;;;;;4954044;28;20034;-78
2021/09/10 01:51:36;;;;;;;1.80;1.70;;;18.40;99.90;;;;;;4954002;28;20034;-79
2021/09/10 01:54:02;;;;;;;2.22;2.10;;;18.40;99.90;;;;;;4953701;28;20043;-79
2021/09/10 01:56:28;;;;;;;1.50;1.40;;;18.40;99.90;;;;;;4953971;28;20026;-78
2021/09/10 01:58:54;;;;;;;2.13;1.98;;;18.40;99.90;;;;;;4954122;28;20082;-79
2021/09/10 02:01:22;;;;;;;1.60;1.50;;;18.50;99.90;;;;;;4954061;28;20871;-79
2021/09/10 02:03:48;;;;;;;1.98;1.88;;;18.50;99.90;;;;;;4953746;28;20031;-79
2021/09/10 02:06:14;;;;;;;1.80;1.70;;;18.50;99.90;;;;;;4952284;29;20045;-79
2021/09/10 02:08:40;;;;;;;1.60;1.50;;;18.50;99.90;;;;;;4954319;28;20423;-80
2021/09/10 02:11:05;;;;;;;1.40;1.30;;;18.50;99.90;;;;;;4953587;28;20027;-78
2021/09/10 02:13:31;;;;;;;1.77;1.67;;;18.40;99.90;;;;;;4952682;28;20112;-76
2021/09/10 02:15:57;;;;;;;3.38;3.08;;;18.30;99.90;;;;;;4953393;28;20051;-78
2021/09/10 02:18:23;;;;;;;1.50;1.40;;;18.20;99.90;;;;;;4953382;28;20038;-76
2021/09/10 02:20:48;;;;;;;1.85;1.75;;;18.20;99.90;;;;;;4952102;29;20034;-78
2021/09/10 02:23:14;;;;;;;1.40;1.30;;;18.20;99.90;;;;;;4953217;28;20036;-79
2021/09/10 02:25:40;;;;;;;1.63;1.52;;;18.20;99.90;;;;;;4953318;29;20049;-79
2021/09/10 02:28:05;;;;;;;2.13;1.92;;;18.10;99.90;;;;;;4953216;28;20503;-77
2021/09/10 02:30:34;;;;;;;1.90;1.80;;;18.30;99.90;;;;;;4953318;29;20121;-76
2021/09/10 02:33:00;;;;;;;1.95;1.85;;;18.30;99.90;;;;;;4953296;28;20106;-78
2021/09/10 02:35:26;;;;;;;1.50;1.40;;;18.30;99.90;;;;;;4952687;29;20023;-78
2021/09/10 02:37:53;;;;;;;1.60;1.50;;;18.10;99.90;;;;;;4953112;29;20047;-78
2021/09/10 02:40:20;;;;;;;2.08;1.70;;;18.10;99.90;;;;;;4951736;29;20031;-78
2021/09/10 02:42:46;;;;;;;1.85;1.73;;;18.00;99.90;;;;;;4953156;28;20020;-78
2021/09/10 02:45:12;;;;;;;1.55;1.45;;;17.50;99.90;;;;;;4952551;28;20049;-78
2021/09/10 02:47:38;;;;;;;1.90;1.80;;;17.20;99.90;;;;;;4952899;28;20031;-78
2021/09/10 02:50:04;;;;;;;2.65;2.45;;;17.20;99.90;;;;;;4952931;29;20035;-78
2021/09/10 02:52:33;;;;;;;1.70;1.60;;;17.20;99.90;;;;;;4951259;29;20403;-77
2021/09/10 02:54:59;;;;;;;1.77;1.67;;;17.10;99.90;;;;;;4951491;29;20494;-76
2021/09/10 02:57:24;;;;;;;1.70;1.60;;;17.20;99.90;;;;;;4953187;29;20028;-77
2021/09/10 02:59:50;;;;;;;1.60;1.50;;;17.60;99.90;;;;;;4952781;28;20035;-75
2021/09/10 03:02:16;;;;;;;1.60;1.50;;;17.70;99.90;;;;;;4952577;29;20102;-76
2021/09/10 03:04:45;;;;;;;1.70;1.60;;;17.90;99.90;;;;;;4952726;29;20039;-78
2021/09/10 03:07:11;;;;;;;2.33;2.13;;;17.90;99.90;;;;;;4952327;29;20039;-79
2021/09/10 03:09:37;;;;;;;6.65;4.82;;;17.80;99.90;;;;;;4952856;28;20046;-77
2021/09/10 03:12:03;;;;;;;1.98;1.88;;;17.60;99.90;;;;;;4952498;28;20122;-75
2021/09/10 03:14:32;;;;;;;2.00;1.90;;;17.50;99.90;;;;;;4952679;28;20169;-77
2021/09/10 03:16:58;;;;;;;1.60;1.50;;;17.70;99.90;;;;;;4952640;28;20547;-77
2021/09/10 03:19:25;;;;;;;1.63;1.52;;;17.80;99.90;;;;;;4951443;29;20031;-76
2021/09/10 03:21:52;;;;;;;1.83;1.73;;;17.70;99.90;;;;;;4952089;28;20035;-76
2021/09/10 03:24:18;;;;;;;1.70;1.60;;;17.80;99.90;;;;;;4952486;28;20025;-77
2021/09/10 03:26:43;;;;;;;1.60;1.50;;;17.80;99.90;;;;;;4950799;28;20031;-79
2021/09/10 03:29:10;;;;;;;1.98;1.88;;;17.90;99.90;;;;;;4952295;28;20152;-79
2021/09/10 03:31:35;;;;;;;1.77;1.67;;;17.90;99.90;;;;;;4952217;28;20106;-78
2021/09/10 03:34:01;;;;;;;1.83;1.73;;;17.90;99.90;;;;;;4952496;28;20587;-77
2021/09/10 03:36:27;;;;;;;1.77;1.67;;;17.90;99.90;;;;;;4952078;29;20034;-77
2021/09/10 03:38:53;;;;;;;1.70;1.60;;;17.80;99.90;;;;;;4950886;29;20059;-77
2021/09/10 03:41:19;;;;;;;2.75;2.15;;;17.80;99.90;;;;;;4950759;29;20019;-77
2021/09/10 03:43:49;;;;;;;1.80;1.60;;;17.80;99.90;;;;;;4952443;28;20054;-77
2021/09/10 03:46:15;;;;;;;1.77;1.67;;;17.80;99.90;;;;;;4952060;28;20031;-78
2021/09/10 03:48:40;;;;;;;2.70;2.50;;;17.80;99.90;;;;;;4951111;29;20034;-79
2021/09/10 03:51:06;;;;;;;1.70;1.60;;;17.80;99.90;;;;;;4951725;28;20058;-79
2021/09/10 03:53:32;;;;;;;1.70;1.60;;;17.80;99.90;;;;;;4950461;29;20569;-79
2021/09/10 03:55:58;;;;;;;1.90;1.80;;;17.80;99.90;;;;;;4952030;28;20019;-79
2021/09/10 03:58:24;;;;;;;2.28;2.08;;;17.80;99.90;;;;;;4952175;28;20035;-80
2021/09/10 04:00:49;;;;;;;1.67;1.58;;;17.90;99.90;;;;;;4951479;28;20395;-78
2021/09/10 04:03:15;;;;;;;1.50;1.40;;;17.90;99.90;;;;;;4950862;29;20472;-79
2021/09/10 04:05:41;;;;;;;1.50;1.40;;;17.80;99.90;;;;;;4950620;29;20055;-78
2021/09/10 04:08:07;;;;;;;7.90;2.28;;;17.80;99.90;;;;;;4950550;29;20063;-78
2021/09/10 04:10:32;;;;;;;2.83;2.63;;;17.90;99.90;;;;;;4951602;28;20447;-78
2021/09/10 04:12:58;;;;;;;2.05;1.95;;;17.90;99.90;;;;;;4951032;29;20039;-78
2021/09/10 04:15:24;;;;;;;2.22;2.13;;;17.70;99.90;;;;;;4951542;28;20035;-78
2021/09/10 04:17:49;;;;;;;1.60;1.50;;;17.80;99.90;;;;;;4950591;29;20086;-79
2021/09/10 04:20:15;;;;;;;1.52;1.42;;;17.70;99.90;;;;;;4951900;28;20390;-79
2021/09/10 04:22:42;;;;;;;1.50;1.40;;;17.80;99.90;;;;;;4951810;28;20632;-79
2021/09/10 04:25:08;;;;;;;2.75;2.55;;;17.50;99.90;;;;;;4951214;28;20175;-78
2021/09/10 04:27:34;;;;;;;1.92;1.83;;;17.20;99.90;;;;;;4951487;28;20050;-78
2021/09/10 04:30:00;;;;;;;1.73;1.63;;;17.10;99.90;;;;;;4951867;29;20439;-80
2021/09/10 04:32:26;;;;;;;1.77;1.67;;;17.00;99.90;;;;;;4950625;29;20028;-79
2021/09/10 04:34:52;;;;;;;2.22;2.03;;;17.30;99.90;;;;;;4951629;28;20043;-79
2021/09/10 04:37:17;;;;;;;1.77;1.67;;;17.40;99.90;;;;;;4950794;28;20039;-79
2021/09/10 04:39:43;;;;;;;1.70;1.60;;;17.70;99.90;;;;;;4955502;29;20551;-78
2021/09/10 04:42:09;;;;;;;1.77;1.67;;;17.70;99.90;;;;;;4955323;29;20038;-78
2021/09/10 04:44:35;;;;;;;2.25;2.15;;;17.90;99.90;;;;;;4955602;28;20096;-78
2021/09/10 04:47:01;;;;;;;1.83;1.73;;;17.80;99.90;;;;;;4954785;28;20122;-78
2021/09/10 04:49:27;;;;;;;1.80;1.70;;;17.90;99.90;;;;;;4955605;28;20567;-78
2021/09/10 04:51:52;;;;;;;1.60;1.50;;;17.90;99.90;;;;;;4953541;29;20040;-79
2021/09/10 04:54:18;;;;;;;1.90;1.80;;;17.90;99.90;;;;;;4955146;29;20019;-77
2021/09/10 04:56:47;;;;;;;1.60;1.50;;;18.10;99.90;;;;;;4969719;28;20027;-78
2021/09/10 04:59:13;;;;;;;1.90;1.80;;;18.20;99.90;;;;;;4955436;28;20023;-78
2021/09/10 05:01:39;;;;;;;2.10;1.98;;;18.10;99.90;;;;;;4955162;28;20046;-78
2021/09/10 05:04:05;;;;;;;1.70;1.60;;;18.10;99.90;;;;;;4954917;28;20024;-79
2021/09/10 05:06:31;;;;;;;1.70;1.60;;;18.10;99.90;;;;;;4954806;29;20464;-79
2021/09/10 05:08:57;;;;;;;1.50;1.40;;;18.20;99.90;;;;;;4955229;29;20046;-77
2021/09/10 05:11:24;;;;;;;1.77;1.67;;;18.10;99.90;;;;;;4969175;28;20037;-78
2021/09/10 05:13:49;;;;;;;1.80;1.70;;;18.10;99.90;;;;;;4944902;29;20036;-77
2021/09/10 05:16:15;;;;;;;2.05;1.95;;;18.10;99.90;;;;;;4952560;29;20146;-78
2021/09/10 05:18:42;;;;;;;1.85;1.75;;;18.00;99.90;;;;;;4952779;29;20050;-81
2021/09/10 05:21:08;;;;;;;1.60;1.50;;;17.90;99.90;;;;;;4953553;28;20039;-78
2021/09/10 05:23:34;;;;;;;1.55;1.45;;;17.80;99.90;;;;;;4953802;28;20024;-79
2021/09/10 05:26:00;;;;;;;4.20;2.05;;;17.80;99.90;;;;;;4954181;28;20027;-79
2021/09/10 05:28:25;;;;;;;1.92;1.80;;;17.70;99.90;;;;;;4953953;28;20505;-77
2021/09/10 05:30:51;;;;;;;5.75;3.22;;;17.80;99.90;;;;;;4954326;28;20461;-77
2021/09/10 05:33:17;;;;;;;1.75;1.65;;;18.00;99.90;;;;;;4953986;28;20054;-78
2021/09/10 05:35:43;;;;;;;1.98;1.88;;;18.10;99.90;;;;;;4952490;29;20394;-78
2021/09/10 05:38:09;;;;;;;1.50;1.40;;;18.30;99.90;;;;;;4952689;29;20411;-75
2021/09/10 05:40:35;;;;;;;1.65;1.55;;;18.40;99.90;;;;;;4954102;28;20355;-76
2021/09/10 05:43:01;;;;;;;2.40;2.22;;;18.50;99.90;;;;;;4953407;28;20055;-76
2021/09/10 05:45:27;;;;;;;1.55;1.45;;;18.40;99.90;;;;;;4954244;28;20038;-75
2021/09/10 05:47:53;;;;;;;2.40;1.73;;;18.50;99.90;;;;;;4952409;28;20043;-76
2021/09/10 05:50:19;;;;;;;1.98;1.88;;;18.40;99.90;;;;;;4953769;28;20035;-75
2021/09/10 05:52:45;;;;;;;1.98;1.80;;;18.50;99.90;;;;;;4953988;28;20054;-75
2021/09/10 05:55:10;;;;;;;6.72;2.85;;;18.50;99.90;;;;;;4952379;28;20102;-75
2021/09/10 05:57:36;;;;;;;1.63;1.52;;;18.50;99.90;;;;;;4953426;28;20059;-74
2021/09/10 06:00:03;;;;;;;1.77;1.67;;;18.60;99.90;;;;;;4953886;28;20479;-75
2021/09/10 06:02:29;;;;;;;1.60;1.50;;;18.50;99.90;;;;;;4952215;29;20114;-78
2021/09/10 06:04:55;;;;;;;2.08;1.88;;;18.50;99.90;;;;;;4952296;28;20102;-76
2021/09/10 06:07:21;;;;;;;1.38;1.27;;;18.60;99.90;;;;;;4950404;29;20043;-78
2021/09/10 06:09:47;;;;;;;2.55;2.35;;;18.60;99.90;;;;;;4933744;29;20024;-77
2021/09/10 06:12:13;;;;;;;3.92;3.03;;;18.80;99.90;;;;;;4950601;29;20045;-75
2021/09/10 06:14:39;;;;;;;4.18;3.88;;;18.80;99.90;;;;;;4950072;29;20031;-75
2021/09/10 06:17:05;;;;;;;7.28;6.57;;;18.90;99.90;;;;;;4951942;28;20041;-76
2021/09/10 06:19:31;;;;;;;14.00;7.38;;;18.90;99.90;;;;;;4951478;29;20423;-75
2021/09/10 06:21:56;;;;;;;2.08;1.95;;;19.10;99.90;;;;;;4953097;28;20456;-75
2021/09/10 06:24:22;;;;;;;2.47;2.28;;;19.00;99.90;;;;;;4953323;28;20410;-75
2021/09/10 06:26:48;;;;;;;1.38;1.27;;;18.80;99.90;;;;;;4953199;29;20031;-75
2021/09/10 06:29:14;;;;;;;1.60;1.50;;;18.80;99.90;;;;;;4938779;28;20495;-75
2021/09/10 06:31:40;;;;;;;2.70;2.42;;;18.90;99.90;;;;;;4932754;29;20361;-74
2021/09/10 06:34:07;;;;;;;1.63;1.52;;;18.90;99.90;;;;;;4934026;29;20062;-76
2021/09/10 06:36:33;;;;;;;1.40;1.30;;;19.00;99.90;;;;;;4933790;29;20492;-76
2021/09/10 06:38:58;;;;;;;1.50;1.40;;;19.10;99.90;;;;;;4933952;29;20062;-76
2021/09/10 06:41:24;;;;;;;1.70;1.60;;;19.10;99.90;;;;;;4935847;29;20065;-80
2021/09/10 06:43:50;;;;;;;1.23;1.17;;;19.10;99.90;;;;;;4963459;28;20027;-77
2021/09/10 06:46:16;;;;;;;2.03;1.88;;;19.20;99.90;;;;;;4972143;28;20137;-77
2021/09/10 06:48:42;;;;;;;1.48;1.38;;;19.00;99.90;;;;;;4972002;28;20034;-77
2021/09/10 06:51:08;;;;;;;1.30;1.20;;;19.10;99.90;;;;;;4972064;28;20471;-79
2021/09/10 06:53:35;;;;;;;2.28;2.08;;;19.50;99.90;;;;;;4971595;28;20035;-76
2021/09/10 06:56:01;;;;;;;1.83;1.73;;;19.80;99.90;;;;;;4971641;28;20121;-76
2021/09/10 06:58:27;;;;;;;1.88;1.77;;;19.90;99.90;;;;;;4972168;28;20035;-78
2021/09/10 07:00:53;;;;;;;3.55;3.20;;;20.10;99.90;;;;;;4971247;28;20042;-78
2021/09/10 07:03:19;;;;;;;1.90;1.70;;;20.20;99.90;;;;;;4971941;28;20086;-77
2021/09/10 07:05:45;;;;;;;2.78;2.15;;;20.10;99.90;;;;;;4971681;28;20031;-77
2021/09/10 07:08:11;;;;;;;6.72;2.95;;;20.10;99.90;;;;;;4971558;28;20094;-77
2021/09/10 07:10:36;;;;;;;2.15;1.95;;;20.10;99.90;;;;;;4954672;28;20122;-77
2021/09/10 07:13:02;;;;;;;1.80;1.70;;;20.20;99.90;;;;;;4954391;28;20031;-77
2021/09/10 07:15:28;;;;;;;1.02;1.02;;;20.20;99.90;;;;;;4971413;28;20070;-77
2021/09/10 07:17:54;;;;;;;1.30;1.20;;;20.30;99.90;;;;;;4971643;28;20367;-77
2021/09/10 07:20:20;;;;;;;1.10;1.10;;;20.40;99.90;;;;;;4971720;28;20035;-77
2021/09/10 07:22:46;;;;;;;1.30;1.20;;;20.60;99.90;;;;;;4971601;28;20030;-77
2021/09/10 07:25:12;;;;;;;1.00;1.00;;;20.60;99.90;;;;;;4971261;28;20537;-78
2021/09/10 07:27:37;;;;;;;7.25;3.80;;;20.60;99.90;;;;;;4971695;28;20097;-78
2021/09/10 07:30:04;;;;;;;2.47;2.28;;;20.90;99.90;;;;;;4971560;28;20030;-76
2021/09/10 07:32:30;;;;;;;1.45;1.35;;;21.10;99.90;;;;;;4954001;28;20644;-79
2021/09/10 07:34:55;;;;;;;2.60;2.40;;;21.10;99.90;;;;;;4953558;28;20471;-79
2021/09/10 07:37:27;;;;;;;3.70;2.17;;;21.10;99.90;;;;;;4954074;28;20034;-77
2021/09/10 07:39:53;;;;;;;2.58;2.38;;;21.20;99.90;;;;;;4971025;28;20087;-77
2021/09/10 07:42:20;;;;;;;1.63;1.52;;;21.50;99.90;;;;;;4971303;28;20030;-77
2021/09/10 07:44:46;;;;;;;1.92;1.80;;;21.70;99.90;;;;;;4970898;28;20023;-76
2021/09/10 07:47:11;;;;;;;1.55;1.30;;;21.60;99.80;;;;;;4953710;28;20039;-77
2021/09/10 07:49:37;;;;;;;0.80;0.80;;;21.70;99.90;;;;;;4971202;28;20473;-76
2021/09/10 07:52:04;;;;;;;1.40;1.30;;;21.90;99.70;;;;;;4971053;28;20031;-77
2021/09/10 07:54:29;;;;;;;2.08;1.88;;;21.90;99.90;;;;;;4970450;28;20110;-78
2021/09/10 07:56:55;;;;;;;1.23;1.10;;;21.80;99.00;;;;;;4970795;28;20134;-79
2021/09/10 07:59:21;;;;;;;0.90;0.90;;;21.90;99.50;;;;;;4953461;28;20450;-79
2021/09/10 08:01:46;;;;;;;1.23;1.13;;;21.90;99.20;;;;;;4970778;28;20038;-79
2021/09/10 08:04:12;;;;;;;0.82;0.82;;;21.90;98.90;;;;;;4953293;28;20029;-78
2021/09/10 08:06:38;;;;;;;1.38;1.27;;;21.90;98.50;;;;;;4953399;28;20379;-78
2021/09/10 08:09:05;;;;;;;4.03;3.13;;;22.10;98.60;;;;;;4970989;28;20085;-78
2021/09/10 08:11:33;;;;;;;3.45;3.17;;;22.20;98.30;;;;;;4953389;28;20019;-78
2021/09/10 08:14:00;;;;;;;2.05;1.92;;;22.30;97.90;;;;;;4974939;28;20129;-78
2021/09/10 08:16:26;;;;;;;1.13;1.08;;;22.40;97.80;;;;;;4974835;28;20757;-78
2021/09/10 08:21:44;;;;;;;1.38;1.27;;;22.30;97.40;;;;;;4964093;28;20122;-78
2021/09/10 08:24:10;;;;;;;5.18;2.33;;;22.40;96.70;;;;;;4974861;28;20031;-78
2021/09/10 08:26:36;;;;;;;0.82;0.82;;;22.30;97.50;;;;;;4974695;28;20030;-78
2021/09/10 08:29:01;;;;;;;1.73;1.63;;;22.60;97.00;;;;;;4974913;28;20142;-78
2021/09/10 08:31:27;;;;;;;0.73;0.73;;;22.70;96.80;;;;;;4957095;28;20114;-78
2021/09/10 08:33:53;;;;;;;0.80;0.80;;;22.90;96.20;;;;;;4974696;28;20461;-77
2021/09/10 08:36:19;;;;;;;1.25;1.13;;;22.70;95.50;;;;;;4974432;28;20045;-77
2021/09/10 08:38:44;;;;;;;0.80;0.80;;;22.50;95.30;;;;;;4974421;28;20032;-78
2021/09/10 08:41:13;;;;;;;0.73;0.73;;;22.80;95.80;;;;;;4965414;28;20045;-79
2021/09/10 08:44:05;;;;;;;1.73;1.08;;;23.30;95.50;;;;;;4974454;28;20490;-77
2021/09/10 08:47:11;;;;;;;0.93;0.93;;;23.40;94.70;;;;;;4973836;28;20027;-79
2021/09/10 08:49:54;;;;;;;0.90;0.90;;;23.50;94.10;;;;;;4926272;29;20036;-78
2021/09/10 08:55:33;;;;;;;1.13;1.05;;;23.80;93.60;;;;;;4954655;29;20439;-78
2021/09/10 08:57:58;;;;;;;0.80;0.80;;;23.90;93.60;;;;;;4959167;28;20463;-79
2021/09/10 09:00:36;;;;;;;0.90;0.90;;;24.10;92.50;;;;;;4974208;28;20656;-78
2021/09/10 09:03:06;;;;;;;0.60;0.60;;;24.50;92.00;;;;;;4973949;28;20030;-78
2021/09/10 09:05:32;;;;;;;0.60;0.60;;;24.60;91.70;;;;;;4974290;28;20423;-79
2021/09/10 09:08:18;;;;;;;0.63;0.63;;;24.70;91.30;;;;;;4974282;28;20355;-79
2021/09/10 09:11:11;;;;;;;1.38;1.25;;;24.80;91.00;;;;;;4974060;28;20050;-78
2021/09/10 09:13:40;;;;;;;1.95;1.83;;;24.80;90.40;;;;;;4973581;28;20027;-78
2021/09/10 09:16:38;;;;;;;3.72;2.17;;;24.80;90.70;;;;;;4973654;28;20090;-78
2021/09/10 09:19:08;;;;;;;1.13;0.98;;;24.90;89.20;;;;;;4973618;28;20444;-79
2021/09/10 09:21:42;;;;;;;1.13;1.05;;;24.80;88.60;;;;;;4973889;28;20386;-78
2021/09/10 09:24:14;;;;;;;0.70;0.70;;;24.80;89.00;;;;;;4973543;28;20041;-78
2021/09/10 09:26:41;;;;;;;0.50;0.50;;;24.90;88.00;;;;;;4973383;28;20030;-79
2021/09/10 09:32:11;;;;;;;0.60;0.60;;;25.40;88.20;;;;;;4973045;28;20093;-78
2021/09/10 09:34:45;;;;;;;0.70;0.70;;;25.70;85.80;;;;;;4973350;28;20015;-78
2021/09/10 09:37:48;;;;;;;0.45;0.45;;;26.00;85.00;;;;;;4973117;28;20110;-78
2021/09/10 09:40:14;;;;;;;0.70;0.57;;;25.80;84.70;;;;;;4973162;28;20061;-80
2021/09/10 09:42:40;;;;;;;1.30;0.80;;;25.80;84.60;;;;;;4973048;28;20023;-78
2021/09/10 09:45:12;;;;;;;1.05;0.93;;;25.80;83.70;;;;;;4955777;28;20430;-79
2021/09/10 09:47:38;;;;;;;0.40;0.40;;;26.20;82.60;;;;;;4972888;28;20041;-78
2021/09/10 09:50:11;;;;;;;0.73;0.73;;;25.90;81.80;;;;;;4973343;28;20039;-79
2021/09/10 09:52:38;;;;;;;1.13;1.02;;;26.10;81.10;;;;;;4956240;28;20419;-79
2021/09/10 09:55:06;;;;;;;0.65;0.65;;;26.20;80.70;;;;;;4972799;28;20517;-77
2021/09/10 09:57:33;;;;;;;1.38;1.27;;;26.20;78.40;;;;;;4955010;28;20489;-78
2021/09/10 10:00:03;;;;;;;0.88;0.80;;;26.20;78.80;;;;;;4972831;28;20035;-78
2021/09/10 10:02:29;;;;;;;1.48;0.90;;;26.30;80.40;;;;;;4972705;28;20038;-79
2021/09/10 10:04:59;;;;;;;0.45;0.45;;;26.60;78.40;;;;;;4972462;28;20027;-82
2021/09/10 10:07:31;;;;;;;0.50;0.50;;;26.80;78.50;;;;;;4972478;28;20078;-80
2021/09/10 10:09:59;;;;;;;1.10;0.82;;;26.40;77.90;;;;;;4955290;28;20452;-79
2021/09/10 10:12:26;;;;;;;1.05;0.95;;;26.30;78.20;;;;;;4972207;28;20034;-79
2021/09/10 10:14:52;;;;;;;1.55;1.10;;;26.30;78.10;;;;;;4953465;29;20447;-79
2021/09/10 10:17:30;;;;;;;0.82;0.70;;;26.30;77.90;;;;;;4953045;29;20062;-79
2021/09/10 10:19:57;;;;;;;0.90;0.70;;;26.40;78.00;;;;;;4953223;29;20030;-78
2021/09/10 10:22:36;;;;;;;0.80;0.75;;;26.30;77.70;;;;;;4953167;29;20031;-80
2021/09/10 10:25:05;;;;;;;0.55;0.55;;;26.90;76.70;;;;;;4958586;28;20086;-78
2021/09/10 10:27:40;;;;;;;0.80;0.75;;;27.20;76.20;;;;;;4954627;28;20033;-79
2021/09/10 10:30:34;;;;;;;0.70;0.70;;;27.60;74.80;;;;;;4954730;28;20035;-79
2021/09/10 10:33:27;;;;;;;0.63;0.63;;;27.80;73.50;;;;;;4971941;28;20416;-77
2021/09/10 10:35:53;;;;;;;1.65;0.95;;;28.20;73.60;;;;;;4970671;28;20090;-78
2021/09/10 10:38:19;;;;;;;0.63;0.57;;;27.90;71.10;;;;;;4954263;28;20039;-77
2021/09/10 10:40:47;;;;;;;2.60;1.67;;;27.20;73.10;;;;;;4971508;28;20057;-77
2021/09/10 10:43:21;;;;;;;0.73;0.73;;;26.60;74.60;;;;;;4954390;28;20118;-78
2021/09/10 10:45:47;;;;;;;1.17;0.82;;;26.70;75.20;;;;;;4971848;28;20482;-77
2021/09/10 10:48:33;;;;;;;3.17;2.63;;;27.50;74.00;;;;;;4971358;28;20106;-79
2021/09/10 10:51:17;;;;;;;1.48;1.38;;;27.90;72.50;;;;;;4971802;28;20027;-79
2021/09/10 10:53:46;;;;;;;0.75;0.60;;;27.80;71.80;;;;;;4972099;28;20050;-80
2021/09/10 10:56:34;;;;;;;1.77;1.02;;;27.80;70.90;;;;;;4970751;28;20046;-81
2021/09/10 10:59:12;;;;;;;0.52;0.52;;;27.90;70.50;;;;;;4984053;28;20014;-79
2021/09/10 11:02:22;;;;;;;0.47;0.47;;;28.20;71.10;;;;;;4974903;28;20393;-87
2021/09/10 11:04:50;;;;;;;1.20;0.57;;;28.50;70.00;;;;;;4992326;28;20061;-86
2021/09/10 11:07:20;;;;;;;0.68;0.65;;;28.20;69.90;;;;;;4974129;28;20037;-81
2021/09/10 11:10:08;;;;;;;0.40;0.40;;;28.30;69.40;;;;;;4974117;28;20689;-76
2021/09/10 11:12:37;;;;;;;0.60;0.60;;;28.30;71.20;;;;;;4989959;28;20054;-80
2021/09/10 11:15:16;;;;;;;1.02;0.75;;;28.00;71.20;;;;;;4971255;28;20046;-78
2021/09/10 11:17:43;;;;;;;0.40;0.40;;;28.10;70.30;;;;;;4971521;28;20039;-77
2021/09/10 11:20:09;;;;;;;0.50;0.50;;;28.10;70.30;;;;;;4971463;28;20038;-78
2021/09/10 11:22:47;;;;;;;0.45;0.45;;;28.60;68.70;;;;;;4954475;28;20027;-81
2021/09/10 11:25:13;;;;;;;0.32;0.32;;;29.00;69.10;;;;;;4971347;28;20478;-78
2021/09/10 11:27:39;;;;;;;0.45;0.45;;;29.10;67.80;;;;;;4971234;28;20105;-77
2021/09/10 11:30:10;;;;;;;1.30;1.13;;;29.40;67.00;;;;;;4953126;28;20138;-78
2021/09/10 11:32:36;;;;;;;2.85;0.73;;;29.40;66.60;;;;;;4976688;28;20050;-78
2021/09/10 11:35:15;;;;;;;0.98;0.85;;;29.60;66.20;;;;;;4961570;28;20133;-80
2021/09/10 11:37:51;;;;;;;1.00;0.82;;;29.60;67.40;;;;;;4969239;28;20038;-80
2021/09/10 11:40:36;;;;;;;0.60;0.55;;;29.60;65.10;;;;;;4970180;28;20055;-82
2021/09/10 11:43:05;;;;;;;1.00;0.73;;;29.80;64.90;;;;;;4967874;28;20030;-81
2021/09/10 11:45:34;;;;;;;2.90;0.98;;;29.90;64.30;;;;;;4973695;28;20027;-84
2021/09/10 11:48:05;;;;;;;1.30;1.08;;;29.50;63.30;;;;;;4952859;28;20035;-86
2021/09/10 11:53:46;;;;;;;0.30;0.30;;;29.60;65.10;;;;;;4960382;28;20041;-83
2021/09/10 11:56:17;;;;;;;0.98;0.73;;;29.40;63.80;;;;;;4953478;28;20090;-82
2021/09/10 11:58:46;;;;;;;0.60;0.60;;;29.50;64.80;;;;;;4967981;28;20021;-83
2021/09/10 12:01:22;;;;;;;0.93;0.60;;;29.60;64.00;;;;;;4970694;28;20565;-78
2021/09/10 12:03:58;;;;;;;3.15;1.48;;;29.60;63.50;;;;;;4951475;28;20027;-80
2021/09/10 12:06:34;;;;;;;0.77;0.75;;;29.20;64.10;;;;;;4948552;28;20027;-80
2021/09/10 12:09:16;;;;;;;0.47;0.47;;;29.60;63.80;;;;;;4970091;28;20023;-81
2021/09/10 12:12:00;;;;;;;0.75;0.68;;;29.90;63.80;;;;;;4971044;28;20027;-79
2021/09/10 12:14:42;;;;;;;0.70;0.65;;;30.00;63.20;;;;;;4971391;28;20150;-79
2021/09/10 12:17:11;;;;;;;0.40;0.40;;;30.10;62.90;;;;;;4955091;28;20051;-82
2021/09/10 12:20:01;;;;;;;0.38;0.38;;;30.10;61.90;;;;;;4943514;28;20019;-78
2021/09/10 12:22:37;;;;;;;1.10;0.47;;;29.40;62.80;;;;;;4949782;28;20106;-79
2021/09/10 12:25:37;;;;;;;1.35;0.95;;;29.70;62.50;;;;;;4945219;28;20133;-79
2021/09/10 12:28:03;;;;;;;0.57;0.52;;;29.00;61.40;;;;;;4950236;28;20057;-84
2021/09/10 12:30:33;;;;;;;6.97;2.10;;;28.80;63.50;;;;;;4953062;28;20027;-77
2021/09/10 12:32:59;;;;;;;1.75;0.80;;;29.70;61.90;;;;;;4937150;28;20055;-86
2021/09/10 12:35:28;;;;;;;1.23;0.82;;;29.90;60.40;;;;;;4951326;28;20043;-85
2021/09/10 12:41:45;;;;;;;0.65;0.60;;;30.80;60.30;;;;;;4928539;28;20136;-81
2021/09/10 12:44:11;;;;;;;1.38;0.73;;;30.90;59.60;;;;;;4970753;28;20053;-87
2021/09/10 12:46:38;;;;;;;1.55;1.33;;;30.70;59.10;;;;;;4971126;28;20073;-87
2021/09/10 12:49:07;;;;;;;0.60;0.45;;;30.80;59.00;;;;;;4972508;28;20053;-77
2021/09/10 12:51:37;;;;;;;2.95;2.65;;;30.50;59.10;;;;;;4971267;28;20027;-83
2021/09/10 12:54:03;;;;;;;2.28;2.05;;;30.20;59.30;;;;;;4950891;28;20038;-80
2021/09/10 12:56:28;;;;;;;0.70;0.60;;;30.20;59.80;;;;;;4952625;28;20038;-80
2021/09/10 12:58:54;;;;;;;2.10;1.20;;;30.20;59.50;;;;;;4982848;28;20105;-77
2021/09/10 13:01:20;;;;;;;1.50;1.00;;;30.60;58.60;;;;;;4979403;28;20478;-77
2021/09/10 13:03:47;;;;;;;0.52;0.52;;;30.90;59.00;;;;;;4956880;28;20035;-78
2021/09/10 13:06:13;;;;;;;0.55;0.52;;;30.80;58.10;;;;;;4974020;28;20023;-78
2021/09/10 13:08:41;;;;;;;0.77;0.77;;;31.30;59.00;;;;;;4992419;28;20084;-79
2021/09/10 13:11:09;;;;;;;0.65;0.65;;;32.10;58.60;;;;;;4976491;28;20032;-78